Accueil
METAR-TAF:

METAR-TAF

Aéroports :

Aéroport de Vavaʻu

Vavaʻu, Tonga

latitude: 18-35-07S, longitude: 173-57-42W, altitude: 72 m

Observation

Le bulletin a été fait il y a 4 heures et 56 minutes, à 06:00 UTC
Vent calme
Température 23°C
Humidité 78%
Pression 1013 hPa
Visibilité 10 km ou plus
Quelques nuages à une hauteur de 1700 ft

METAR: NFTV 220600Z 00000KT 9999 FEW017 23/19 Q1013

Heure: 23:56 (10:56 UTC)

Prévision

Le bulletin a été fait il y a 5 heures et 31 minutes, à 05:25 UTC
Prévision valable du 22 à 06 UTC au 23 à 06 UTC
Vent 7 kt de est/sud-est
Visibilité 10 km ou plus
Quelques nuages à une hauteur de 1700 ft
Probabilité 30%
du 22 à 15 UTC au 22 à 19 UTC
Vent 3 kt de direction variable
Visibilité: 0900 m
Quelques nuages à une hauteur de 1600 ft
brouillard

TAF: NFTV 220525Z 2206/2306 12007KT 9999 FEW017 PROB30 2215/2219 VRB03KT 0900 FG FEW016

Observations et prévisions météorologiques de plus de 4000 aéroports (messages METAR et TAF).

Les stations disponibles sont représentées par des disques jaunes et rouges sur la carte.

Passer la souris dessus pour voir le nom de la station.

Cliquer dessus pour voir les observations et prévisions météorologiques.

Pour changer de carte: cliquez sur les boutons verts avec une croix noire pour zoomer, sur le bouton vert avec un tiret pour effectuer un zoom arrière, ou sur les flèches vertes pour les cartes adjacentes.


METAR-TAF: